Time;durP1;ratioP1;P1;durP2;ratioP2;P2;SDS_P1;SDS_P2;PMS_P1;PMS_P2;Temp;Humidity;BMP_temperature;BMP_pressure;BME280_temperature;BME280_humidity;BME280_pressure;Samples;Min_cycle;Max_cycle;Signal;HPM_P1;HPM_P2
2024/01/22 00:02:03;;;;;;;40.80;25.67;;;;;;;-5.30;89.05;94306.94;5044476;28;20221;-85
2024/01/22 00:04:28;;;;;;;40.37;24.50;;;;;;;-5.26;89.90;94308.28;5061407;28;20223;-84
2024/01/22 00:06:54;;;;;;;40.23;25.93;;;;;;;-4.98;88.95;94318.25;5063418;28;20237;-85
2024/01/22 00:09:20;;;;;;;40.83;26.43;;;;;;;-5.00;89.04;94325.25;5071272;28;20185;-85
2024/01/22 00:11:45;;;;;;;45.57;30.30;;;;;;;-4.99;89.89;94324.31;5068211;28;20248;-83
2024/01/22 00:14:10;;;;;;;58.73;31.13;;;;;;;-5.25;92.51;94303.03;5070972;28;20189;-84
2024/01/22 00:16:42;;;;;;;60.33;33.60;;;;;;;-4.88;92.92;94325.03;5056535;28;20229;-81
2024/01/22 00:19:07;;;;;;;57.70;34.03;;;;;;;-4.57;92.05;94328.84;5050152;28;20212;-84
2024/01/22 00:21:33;;;;;;;59.13;31.67;;;;;;;-4.62;91.12;94318.31;5043249;28;20237;-81
2024/01/22 00:23:58;;;;;;;55.17;31.37;;;;;;;-4.60;91.54;94337.59;5041432;28;20222;-85
2024/01/22 00:26:24;;;;;;;48.57;32.17;;;;;;;-4.75;91.24;94305.13;5036053;28;20187;-83
2024/01/22 00:28:49;;;;;;;54.60;32.77;;;;;;;-4.88;92.56;94313.13;5050374;28;20186;-82
2024/01/22 00:31:14;;;;;;;54.50;31.43;;;;;;;-4.97;93.37;94339.44;5049722;28;20182;-83
2024/01/22 00:33:42;;;;;;;54.00;32.17;;;;;;;-4.84;92.87;94329.69;5050893;28;20277;-85
2024/01/22 00:36:08;;;;;;;48.40;32.50;;;;;;;-4.83;92.12;94325.41;5050672;28;20189;-84
2024/01/22 00:38:33;;;;;;;57.67;32.17;;;;;;;-4.71;91.94;94337.78;5050560;28;20222;-84
2024/01/22 00:40:58;;;;;;;56.83;32.37;;;;;;;-4.93;93.57;94333.91;5050502;28;20182;-84
2024/01/22 00:43:24;;;;;;;54.20;29.40;;;;;;;-4.54;92.85;94336.19;5070026;28;20225;-83
2024/01/22 00:45:50;;;;;;;50.27;31.00;;;;;;;-4.74;91.84;94319.44;5070843;28;20249;-84
2024/01/22 00:48:15;;;;;;;54.63;30.90;;;;;;;-4.98;91.73;94279.28;5047397;28;21232;-84
2024/01/22 00:50:41;;;;;;;58.67;31.80;;;;;;;-4.68;91.39;94306.94;5037714;28;20178;-84
2024/01/22 00:53:06;;;;;;;57.33;31.77;;;;;;;-4.73;90.60;94270.13;5049640;28;20217;-83
2024/01/22 00:55:31;;;;;;;50.60;30.27;;;;;;;-4.56;90.09;94307.53;5050037;28;20181;-84
2024/01/22 00:57:57;;;;;;;52.30;32.57;;;;;;;-4.68;89.45;94298.47;5063930;28;20213;-84
2024/01/22 01:00:22;;;;;;;55.00;30.90;;;;;;;-4.87;89.41;94296.09;5050107;28;20189;-83
2024/01/22 01:02:50;;;;;;;55.30;32.87;;;;;;;-5.01;90.16;94303.28;5065352;28;20232;-84
2024/01/22 01:05:16;;;;;;;48.50;28.83;;;;;;;-4.79;89.98;94316.56;5065317;28;20186;-83
2024/01/22 01:07:41;;;;;;;45.13;28.83;;;;;;;-4.86;89.52;94300.22;5069757;28;20272;-84
2024/01/22 01:10:07;;;;;;;46.57;28.43;;;;;;;-5.31;91.58;94306.13;5063462;28;21012;-85
2024/01/22 01:12:32;;;;;;;54.40;31.00;;;;;;;-5.82;92.77;94299.97;5059497;28;20224;-84
2024/01/22 01:14:58;;;;;;;45.90;29.43;;;;;;;-5.53;93.13;94316.69;5069123;28;20180;-84
2024/01/22 01:17:23;;;;;;;46.30;29.40;;;;;;;-5.02;91.59;94306.78;5059711;28;20229;-84
2024/01/22 01:19:48;;;;;;;41.77;28.67;;;;;;;-5.06;89.70;94276.66;5050221;28;20178;-84
2024/01/22 01:22:14;;;;;;;42.53;27.50;;;;;;;-5.00;90.32;94304.88;5035771;28;20240;-84
2024/01/22 01:24:40;;;;;;;47.87;28.80;;;;;;;-5.09;89.81;94305.72;5043207;28;20253;-84
2024/01/22 01:27:06;;;;;;;50.97;28.07;;;;;;;-4.90;89.13;94298.94;5040113;28;20226;-83
2024/01/22 01:29:31;;;;;;;46.87;26.67;;;;;;;-4.93;89.33;94301.78;5027747;28;20187;-79
2024/01/22 01:31:56;;;;;;;44.10;27.07;;;;;;;-4.93;89.75;94304.31;5045072;28;20246;-79
2024/01/22 01:34:22;;;;;;;40.37;26.23;;;;;;;-4.68;89.19;94298.47;5068049;28;20181;-80
2024/01/22 01:36:47;;;;;;;45.80;28.27;;;;;;;-4.59;88.92;94302.72;5076352;28;20284;-83
2024/01/22 01:39:13;;;;;;;47.97;28.37;;;;;;;-4.72;88.13;94297.19;5047194;28;20190;-80
2024/01/22 01:41:38;;;;;;;38.13;26.07;;;;;;;-4.87;88.70;94298.66;5034763;28;20241;-81
2024/01/22 01:44:04;;;;;;;45.53;27.50;;;;;;;-4.93;89.33;94298.28;5063216;28;20247;-80
2024/01/22 01:46:29;;;;;;;47.03;25.97;;;;;;;-4.94;88.76;94293.31;5054875;28;20209;-81
2024/01/22 01:48:55;;;;;;;47.83;29.23;;;;;;;-5.04;89.63;94282.38;5045080;28;20182;-80
2024/01/22 01:51:21;;;;;;;45.43;26.73;;;;;;;-4.73;89.07;94296.38;5034964;28;20208;-81
2024/01/22 01:53:47;;;;;;;47.87;28.57;;;;;;;-5.48;90.36;94289.06;5042373;28;20186;-80
2024/01/22 01:56:12;;;;;;;38.70;24.93;;;;;;;-5.35;91.36;94298.91;5045001;28;20205;-80
2024/01/22 01:58:38;;;;;;;45.60;25.30;;;;;;;-5.14;90.38;94297.75;5087217;28;20193;-80
2024/01/22 02:01:06;;;;;;;40.13;25.00;;;;;;;-5.08;90.06;94293.81;5069013;28;20181;-78
2024/01/22 02:03:31;;;;;;;40.63;24.07;;;;;;;-5.14;90.11;94267.22;5032160;28;20243;-80
2024/01/22 02:05:57;;;;;;;33.57;24.20;;;;;;;-4.83;89.14;94289.75;5049042;28;20181;-78
2024/01/22 02:08:22;;;;;;;41.90;25.67;;;;;;;-4.77;88.58;94289.16;5051130;28;20221;-81
2024/01/22 02:10:48;;;;;;;36.63;24.63;;;;;;;-4.94;87.40;94270.41;5053721;28;20208;-80
2024/01/22 02:13:14;;;;;;;46.40;26.37;;;;;;;-5.12;88.40;94293.28;5050490;28;20333;-80
2024/01/22 02:15:41;;;;;;;47.67;27.63;;;;;;;-5.31;89.79;94279.91;5046088;28;20904;-79
2024/01/22 02:18:06;;;;;;;43.77;26.33;;;;;;;-4.96;89.30;94295.19;5064126;28;20252;-79
2024/01/22 02:20:31;;;;;;;43.20;27.27;;;;;;;-5.07;89.43;94287.78;5073125;28;20197;-80
2024/01/22 02:23:04;;;;;;;44.43;26.60;;;;;;;-4.96;89.30;94285.81;5069935;28;20707;-79
2024/01/22 02:25:30;;;;;;;42.93;26.43;;;;;;;-5.11;89.15;94278.84;5064891;28;20185;-80
2024/01/22 02:27:55;;;;;;;47.83;29.37;;;;;;;-5.20;89.21;94266.97;5056854;28;20224;-80
2024/01/22 02:30:20;;;;;;;44.87;27.80;;;;;;;-5.25;88.82;94234.31;5067904;28;20257;-80
2024/01/22 02:32:46;;;;;;;50.33;26.73;;;;;;;-5.05;88.69;94261.25;5069992;28;20224;-80
2024/01/22 02:35:11;;;;;;;43.10;24.97;;;;;;;-5.27;88.66;94212.50;5072399;28;20180;-78
2024/01/22 02:37:38;;;;;;;40.93;26.70;;;;;;;-5.06;89.40;94280.00;5070226;28;20221;-80
2024/01/22 02:40:04;;;;;;;41.57;25.60;;;;;;;-5.29;89.89;94253.34;5065186;28;20184;-80
2024/01/22 02:42:29;;;;;;;43.13;24.63;;;;;;;-5.33;90.22;94281.78;5060972;28;20253;-81
2024/01/22 02:44:54;;;;;;;40.57;26.83;;;;;;;-5.13;89.96;94278.16;5028062;28;20178;-81
2024/01/22 02:47:19;;;;;;;42.97;26.67;;;;;;;-5.27;90.46;94276.09;5054812;28;20228;-80
2024/01/22 02:49:45;;;;;;;56.33;33.47;;;;;;;-6.00;91.52;94268.59;5066008;28;20265;-80
2024/01/22 02:52:11;;;;;;;45.63;27.40;;;;;;;-5.84;92.77;94277.22;5068568;28;20228;-81
2024/01/22 02:54:36;;;;;;;43.57;26.00;;;;;;;-5.43;91.98;94276.72;5065933;28;20547;-81
2024/01/22 02:57:02;;;;;;;44.57;25.60;;;;;;;-5.36;90.55;94247.25;5067970;28;20221;-80
2024/01/22 02:59:27;;;;;;;38.17;26.40;;;;;;;-5.10;90.12;94271.06;5050887;28;20193;-80
2024/01/22 03:01:52;;;;;;;43.97;26.20;;;;;;;-4.95;89.53;94272.13;5064105;28;20251;-80
2024/01/22 03:04:18;;;;;;;47.80;28.10;;;;;;;-5.10;89.18;94273.59;5052368;28;20206;-80
2024/01/22 03:06:43;;;;;;;42.10;26.13;;;;;;;-5.36;89.71;94248.97;5056543;28;20229;-80
2024/01/22 03:09:09;;;;;;;39.73;25.53;;;;;;;-5.22;88.67;94256.13;5059991;28;20216;-80
2024/01/22 03:11:34;;;;;;;41.20;24.57;;;;;;;-5.29;88.87;94263.53;5068099;28;20268;-80
2024/01/22 03:14:00;;;;;;;40.87;25.77;;;;;;;-5.77;89.04;94235.00;5051376;28;20213;-80
2024/01/22 03:16:26;;;;;;;38.33;25.47;;;;;;;-5.51;89.51;94256.28;5049659;28;20194;-81
2024/01/22 03:18:52;;;;;;;46.87;26.93;;;;;;;-5.56;88.85;94266.09;5041305;28;20353;-78
2024/01/22 03:21:17;;;;;;;41.73;25.90;;;;;;;-5.54;88.92;94273.59;5052500;28;20242;-80
2024/01/22 03:23:46;;;;;;;48.50;28.37;;;;;;;-5.80;90.67;94282.78;5090650;28;20212;-80
2024/01/22 03:26:19;;;;;;;44.57;24.73;;;;;;;-5.51;90.84;94280.94;5073976;28;20214;-76
2024/01/22 03:28:44;;;;;;;39.43;26.00;;;;;;;-5.77;90.64;94247.72;5082455;28;20804;-80
2024/01/22 03:31:22;;;;;;;43.73;25.33;;;;;;;-5.48;89.59;94278.91;5082810;28;20327;-80
2024/01/22 03:33:48;;;;;;;40.27;27.47;;;;;;;-5.82;90.16;94260.06;5082385;28;20205;-80
2024/01/22 03:36:13;;;;;;;43.50;26.27;;;;;;;-5.63;90.56;94290.50;5073124;28;20253;-80
2024/01/22 03:38:38;;;;;;;46.37;26.47;;;;;;;-5.52;90.39;94285.22;5073898;28;20239;-81
2024/01/22 03:41:04;;;;;;;45.33;25.13;;;;;;;-5.63;89.66;94297.31;5068078;28;20216;-81
2024/01/22 03:43:29;;;;;;;37.03;24.60;;;;;;;-5.67;89.21;94290.91;5075892;28;20272;-80
2024/01/22 03:45:55;;;;;;;34.33;21.47;;;;;;;-5.74;90.89;94293.22;5071616;28;20174;-79
2024/01/22 03:48:20;;;;;;;42.07;24.40;;;;;;;-5.82;90.36;94298.22;5071320;28;20217;-80
2024/01/22 03:54:34;;;;;;;42.10;24.50;;;;;;;-5.90;92.00;94277.00;5077711;28;20556;-81
2024/01/22 03:57:06;;;;;;;49.40;26.30;;;;;;;-5.77;90.96;94290.13;5049051;28;20338;-78
2024/01/22 03:59:31;;;;;;;39.87;24.87;;;;;;;-5.80;90.88;94290.41;5024636;28;20191;-79
2024/01/22 04:01:57;;;;;;;46.57;28.27;;;;;;;-6.05;91.53;94294.41;5021151;28;20308;-79
2024/01/22 04:04:22;;;;;;;48.50;26.57;;;;;;;-5.98;91.34;94287.84;5024866;28;20689;-80
2024/01/22 04:06:47;;;;;;;44.77;27.53;;;;;;;-5.87;92.13;94297.84;5024919;28;20231;-80
2024/01/22 04:09:13;;;;;;;44.27;27.17;;;;;;;-5.93;91.99;94282.34;5018238;28;20194;-78
2024/01/22 04:11:38;;;;;;;48.47;26.00;;;;;;;-5.75;92.06;94290.81;5027104;28;20226;-80
2024/01/22 04:14:04;;;;;;;40.43;25.00;;;;;;;-5.84;92.00;94292.50;5025180;28;20218;-79
2024/01/22 04:16:29;;;;;;;45.37;25.57;;;;;;;-5.91;92.48;94281.25;5025756;28;20214;-80
2024/01/22 04:18:54;;;;;;;46.40;28.07;;;;;;;-6.01;93.49;94265.25;5025464;28;20206;-77
2024/01/22 04:22:09;;;;;;;52.80;25.50;;;;;;;-6.01;92.58;94277.97;5076037;27;21119;-78
2024/01/22 04:24:34;;;;;;;52.07;27.53;;;;;;;-6.04;93.01;94295.22;5046082;28;20190;-79
2024/01/22 04:26:59;;;;;;;59.83;26.63;;;;;;;-6.14;93.35;94272.38;5045784;28;20237;-79
2024/01/22 04:29:25;;;;;;;50.77;25.50;;;;;;;-5.77;92.34;94293.50;5046724;28;20246;-79
2024/01/22 04:31:50;;;;;;;47.27;28.50;;;;;;;-5.89;91.71;94289.56;5045961;28;20225;-79
2024/01/22 04:34:15;;;;;;;44.77;25.60;;;;;;;-5.94;92.03;94293.44;5046532;28;20188;-79
2024/01/22 04:36:41;;;;;;;40.70;23.97;;;;;;;-6.05;92.86;94291.88;5045534;28;20225;-79
2024/01/22 04:39:07;;;;;;;41.73;25.97;;;;;;;-5.88;94.04;94288.59;5046429;28;20170;-79
2024/01/22 04:41:32;;;;;;;43.33;25.27;;;;;;;-5.76;93.49;94284.91;5045932;28;20793;-79
2024/01/22 04:43:57;;;;;;;41.70;25.63;;;;;;;-5.66;92.63;94284.88;5045020;28;20240;-74
2024/01/22 04:46:22;;;;;;;44.87;26.20;;;;;;;-5.68;92.23;94286.78;5043250;28;20191;-72
2024/01/22 04:48:48;;;;;;;45.40;26.90;;;;;;;-5.61;92.46;94278.44;5024008;28;20237;-73
2024/01/22 04:51:13;;;;;;;63.50;26.80;;;;;;;-5.74;92.73;94290.66;5025703;28;20225;-73
2024/01/22 04:53:38;;;;;;;45.03;26.03;;;;;;;-5.74;92.61;94288.13;5044632;28;20202;-73
2024/01/22 04:56:04;;;;;;;43.07;25.97;;;;;;;-5.98;93.83;94289.59;5044933;28;20213;-72
2024/01/22 04:58:29;;;;;;;53.33;24.83;;;;;;;-5.93;93.43;94282.34;5045054;28;20238;-74
2024/01/22 05:00:55;;;;;;;50.53;25.73;;;;;;;-5.82;93.09;94295.66;5044698;28;20240;-73
2024/01/22 05:03:20;;;;;;;51.60;25.57;;;;;;;-5.77;92.30;94272.34;5045007;28;20289;-73
2024/01/22 05:05:45;;;;;;;39.63;23.73;;;;;;;-5.91;93.05;94299.06;5044589;28;20186;-73
2024/01/22 05:08:11;;;;;;;52.63;26.30;;;;;;;-5.86;92.88;94294.38;5043731;28;20230;-72
2024/01/22 05:10:36;;;;;;;38.90;23.97;;;;;;;-5.90;92.86;94282.06;5045155;28;20185;-76
2024/01/22 05:13:02;;;;;;;41.03;25.10;;;;;;;-6.02;93.60;94300.97;5044062;28;20217;-74
2024/01/22 05:15:27;;;;;;;40.13;25.03;;;;;;;-5.93;93.89;94302.69;5046272;28;20201;-73
2024/01/22 05:17:53;;;;;;;45.83;26.97;;;;;;;-5.77;93.79;94295.22;5044401;28;20225;-73
2024/01/22 05:20:18;;;;;;;47.80;26.40;;;;;;;-5.72;92.03;94305.78;5045114;28;20226;-77
2024/01/22 05:22:45;;;;;;;47.87;25.40;;;;;;;-5.91;92.97;94303.31;5044763;28;20307;-77
2024/01/22 05:25:10;;;;;;;43.30;24.07;;;;;;;-5.78;92.76;94291.91;5045429;28;20214;-81
2024/01/22 05:27:35;;;;;;;61.87;27.87;;;;;;;-5.84;93.29;94301.84;5045100;28;20229;-76
2024/01/22 05:30:01;;;;;;;41.33;26.93;;;;;;;-6.00;93.58;94306.72;5044924;28;20266;-77
2024/01/22 05:32:26;;;;;;;59.87;26.73;;;;;;;-6.18;94.97;94309.19;5037832;28;20219;-76
2024/01/22 05:34:51;;;;;;;48.37;27.33;;;;;;;-5.93;95.07;94311.09;5031706;28;20198;-76
2024/01/22 05:37:17;;;;;;;43.93;25.83;;;;;;;-5.83;94.67;94314.44;5031481;28;20297;-76
2024/01/22 05:39:42;;;;;;;47.27;27.23;;;;;;;-6.00;94.10;94289.72;5030869;28;20298;-77
2024/01/22 05:42:07;;;;;;;41.13;25.43;;;;;;;-5.65;92.58;94305.06;5031587;28;20238;-78
2024/01/22 05:44:33;;;;;;;43.43;24.40;;;;;;;-5.68;91.66;94300.28;5031946;28;20210;-76
2024/01/22 05:46:58;;;;;;;42.70;28.23;;;;;;;-6.10;93.68;94304.19;5029924;28;20230;-75
2024/01/22 05:49:23;;;;;;;38.07;24.63;;;;;;;-5.92;93.30;94278.84;5028506;28;20219;-80
2024/01/22 05:51:49;;;;;;;35.70;23.80;;;;;;;-5.68;91.73;94304.59;5028733;28;20222;-76
2024/01/22 05:54:15;;;;;;;44.60;26.80;;;;;;;-5.74;91.33;94295.75;5029229;28;20187;-77
2024/01/22 05:56:40;;;;;;;49.13;26.33;;;;;;;-5.99;91.99;94281.16;5029444;28;20237;-77
2024/01/22 05:59:06;;;;;;;48.30;27.10;;;;;;;-5.97;92.08;94276.75;5029785;28;20191;-77
2024/01/22 06:01:31;;;;;;;42.23;26.43;;;;;;;-5.92;92.86;94294.91;5028417;28;20218;-77
2024/01/22 06:03:57;;;;;;;54.07;29.57;;;;;;;-5.88;93.33;94291.16;5029252;28;20221;-78
2024/01/22 06:06:22;;;;;;;44.67;26.57;;;;;;;-5.41;91.52;94304.56;5027667;28;20271;-76
2024/01/22 06:08:49;;;;;;;50.63;29.33;;;;;;;-5.44;91.51;94303.13;5029429;28;20190;-77
2024/01/22 06:11:18;;;;;;;45.40;27.03;;;;;;;-5.42;90.33;94298.72;5028488;28;20183;-79
2024/01/22 06:13:44;;;;;;;59.53;28.87;;;;;;;-5.34;90.61;94310.72;5029227;28;20178;-82
2024/01/22 06:16:13;;;;;;;59.77;29.43;;;;;;;-5.59;90.32;94296.09;5028566;28;20191;-78
2024/01/22 06:18:40;;;;;;;49.93;27.63;;;;;;;-5.58;90.61;94308.69;5030703;28;20207;-78
2024/01/22 06:21:07;;;;;;;43.57;26.67;;;;;;;-5.78;90.96;94311.44;5029309;28;20290;-81
2024/01/22 06:23:33;;;;;;;47.10;27.20;;;;;;;-5.78;90.43;94303.81;5029104;28;20257;-81
2024/01/22 06:25:59;;;;;;;41.00;25.53;;;;;;;-5.62;90.47;94312.44;5030051;28;20179;-80
2024/01/22 06:28:26;;;;;;;40.03;25.80;;;;;;;-5.78;89.46;94309.69;5029666;28;20230;-81
2024/01/22 06:30:53;;;;;;;38.60;25.23;;;;;;;-5.82;89.00;94315.22;5028499;28;20275;-79
2024/01/22 06:33:19;;;;;;;44.77;24.60;;;;;;;-5.78;89.77;94308.88;5028944;28;20226;-79
2024/01/22 06:35:44;;;;;;;35.83;23.37;;;;;;;-5.49;89.90;94337.53;5030166;28;20186;-80
2024/01/22 06:38:10;;;;;;;39.40;24.53;;;;;;;-5.70;89.48;94311.53;5029360;28;20227;-78
2024/01/22 06:40:35;;;;;;;44.10;25.83;;;;;;;-5.33;88.02;94335.22;5029936;28;20219;-78
2024/01/22 06:43:01;;;;;;;42.67;25.40;;;;;;;-5.55;88.92;94336.38;5029819;28;20285;-83
2024/01/22 06:45:26;;;;;;;56.57;27.43;;;;;;;-5.39;89.33;94330.69;5029923;28;20194;-83
2024/01/22 06:47:52;;;;;;;53.23;27.67;;;;;;;-5.41;89.29;94328.28;5031404;28;20286;-84
2024/01/22 06:50:18;;;;;;;59.60;29.13;;;;;;;-5.33;89.21;94318.22;5031935;28;20221;-84
2024/01/22 06:52:45;;;;;;;52.87;26.33;;;;;;;-5.49;89.79;94318.00;5030111;28;20230;-86
2024/01/22 06:55:11;;;;;;;62.83;28.33;;;;;;;-5.70;90.46;94319.97;5030516;28;20183;-79
2024/01/22 06:57:36;;;;;;;50.77;26.80;;;;;;;-5.70;90.59;94297.09;5034276;28;20238;-80
2024/01/22 07:00:07;;;;;;;46.23;26.83;;;;;;;-5.45;90.45;94329.50;5030258;28;20219;-77
2024/01/22 07:02:33;;;;;;;50.30;28.93;;;;;;;-5.37;89.54;94298.28;5035490;28;20252;-77
2024/01/22 07:04:58;;;;;;;39.50;27.00;;;;;;;-5.25;89.15;94341.22;5029411;28;20255;-79
2024/01/22 07:07:23;;;;;;;45.73;27.13;;;;;;;-5.40;88.43;94317.16;5030045;28;20234;-76
2024/01/22 07:09:49;;;;;;;53.93;28.37;;;;;;;-5.78;89.96;94352.94;5027805;28;20191;-77
2024/01/22 07:12:15;;;;;;;45.47;28.20;;;;;;;-5.66;89.32;94336.56;5030543;28;20238;-78
2024/01/22 07:14:41;;;;;;;52.53;28.57;;;;;;;-5.50;89.29;94349.50;5027762;28;20194;-77
2024/01/22 07:17:06;;;;;;;50.03;27.17;;;;;;;-5.34;88.85;94353.97;5030521;28;20226;-78
2024/01/22 07:19:32;;;;;;;48.67;27.83;;;;;;;-5.60;88.45;94320.72;5030238;28;20209;-77
2024/01/22 07:21:57;;;;;;;64.47;30.00;;;;;;;-5.43;89.29;94344.66;5026865;28;20308;-75
2024/01/22 07:24:23;;;;;;;50.70;26.47;;;;;;;-5.13;88.89;94340.06;5033532;28;20297;-78
2024/01/22 07:26:48;;;;;;;56.67;26.53;;;;;;;-5.16;88.52;94339.53;5026605;28;20230;-77
2024/01/22 07:29:13;;;;;;;45.37;27.33;;;;;;;-4.98;87.89;94338.63;5031920;28;20984;-78
2024/01/22 07:31:39;;;;;;;46.77;27.17;;;;;;;-4.80;87.49;94341.22;5029178;28;20229;-84
2024/01/22 07:34:05;;;;;;;53.93;32.00;;;;;;;-4.55;87.38;94337.94;5026826;28;20183;-76
2024/01/22 07:36:31;;;;;;;53.13;29.57;;;;;;;-4.60;87.09;94326.56;5017889;28;21225;-80
2024/01/22 07:38:57;;;;;;;58.47;30.80;;;;;;;-4.45;87.63;94325.91;5027432;28;20230;-79
2024/01/22 07:41:23;;;;;;;66.07;31.70;;;;;;;-4.23;85.78;94317.00;5023934;28;20219;-77
2024/01/22 07:43:48;;;;;;;63.93;30.13;;;;;;;-4.17;85.27;94329.19;5036244;28;20194;-79
2024/01/22 07:46:14;;;;;;;59.83;30.70;;;;;;;-4.45;85.40;94317.50;5032647;28;20187;-79
2024/01/22 07:48:40;;;;;;;58.50;31.97;;;;;;;-4.28;85.36;94316.69;5025992;28;20194;-79
2024/01/22 07:51:05;;;;;;;74.97;29.53;;;;;;;-4.45;85.28;94307.31;5026071;28;20237;-79
2024/01/22 07:53:31;;;;;;;52.30;29.13;;;;;;;-4.30;84.44;94319.38;5028607;28;20226;-77
2024/01/22 07:55:57;;;;;;;74.70;31.27;;;;;;;-4.40;85.30;94322.94;5027703;28;20724;-76
2024/01/22 07:58:22;;;;;;;57.80;31.63;;;;;;;-4.58;85.21;94304.31;5032707;28;20217;-78
2024/01/22 08:00:48;;;;;;;58.90;30.40;;;;;;;-4.77;86.84;94319.72;5030999;28;20214;-77
2024/01/22 08:03:13;;;;;;;53.27;28.47;;;;;;;-4.78;87.78;94313.84;5027405;28;20222;-78
2024/01/22 08:05:38;;;;;;;61.13;30.40;;;;;;;-4.60;87.16;94318.94;5028327;28;20183;-75
2024/01/22 08:08:06;;;;;;;67.47;32.20;;;;;;;-5.13;90.28;94318.91;5025538;28;20222;-81
2024/01/22 08:10:31;;;;;;;62.63;29.83;;;;;;;-4.53;87.92;94302.13;5024182;28;20212;-76
2024/01/22 08:12:57;;;;;;;60.57;31.70;;;;;;;-3.88;85.62;94311.84;5051396;28;20233;-80
2024/01/22 08:15:22;;;;;;;64.63;31.17;;;;;;;-5.16;88.88;94296.28;5032407;28;20191;-79
2024/01/22 08:17:47;;;;;;;59.70;30.23;;;;;;;-4.58;87.91;94309.41;5030003;28;20238;-78
2024/01/22 08:20:13;;;;;;;59.77;30.03;;;;;;;-3.90;86.22;94285.69;5026402;28;20246;-78
2024/01/22 08:22:39;;;;;;;57.20;30.13;;;;;;;-3.42;82.38;94306.34;5025594;28;20253;-79
2024/01/22 08:25:05;;;;;;;67.00;31.53;;;;;;;-3.76;82.49;94278.28;5028243;28;20237;-80
2024/01/22 08:27:30;;;;;;;65.23;30.97;;;;;;;-3.86;83.51;94287.78;5028022;28;20305;-77
2024/01/22 08:29:55;;;;;;;64.93;34.23;;;;;;;-3.76;83.93;94288.50;5028664;28;20206;-80
2024/01/22 08:32:21;;;;;;;61.33;32.47;;;;;;;-3.28;82.78;94280.22;5031150;28;20218;-80
2024/01/22 08:34:46;;;;;;;64.50;34.07;;;;;;;-3.28;83.38;94271.78;5026201;28;20329;-80
2024/01/22 08:37:11;;;;;;;57.33;33.03;;;;;;;-2.98;80.92;94292.47;5028185;28;20241;-79
2024/01/22 08:39:37;;;;;;;66.83;34.37;;;;;;;-3.03;80.81;94281.91;5018175;28;20191;-78
2024/01/22 08:42:02;;;;;;;67.17;34.93;;;;;;;-3.61;83.75;94298.94;5021351;28;20250;-80
2024/01/22 08:44:28;;;;;;;66.67;34.80;;;;;;;-3.95;83.64;94288.69;5028584;28;20190;-79
2024/01/22 08:46:53;;;;;;;63.30;32.37;;;;;;;-4.04;84.57;94316.84;5035606;28;20281;-80
2024/01/22 08:49:18;;;;;;;65.93;31.63;;;;;;;-4.64;86.86;94321.00;5037517;28;20194;-81
2024/01/22 08:51:44;;;;;;;55.23;29.37;;;;;;;-4.73;88.07;94301.47;5070368;28;20224;-81
2024/01/22 08:54:09;;;;;;;68.77;34.57;;;;;;;-4.78;89.43;94300.31;5027634;28;20195;-81
2024/01/22 08:56:35;;;;;;;63.37;32.37;;;;;;;-4.33;88.08;94319.66;5027472;28;20226;-79
2024/01/22 08:59:00;;;;;;;69.17;33.73;;;;;;;-4.53;87.36;94235.88;5031114;28;20178;-82
2024/01/22 09:01:25;;;;;;;58.83;30.83;;;;;;;-4.02;86.04;94281.78;5026671;28;20254;-79
2024/01/22 09:03:51;;;;;;;66.47;33.27;;;;;;;-3.46;85.02;94299.97;5026723;28;20204;-78
2024/01/22 09:06:16;;;;;;;54.40;30.80;;;;;;;-3.43;84.34;94315.78;5025582;28;20198;-79
2024/01/22 09:08:42;;;;;;;70.37;31.73;;;;;;;-3.71;84.91;94316.09;5030992;28;20190;-79
2024/01/22 09:11:08;;;;;;;60.80;32.03;;;;;;;-3.82;85.22;94312.06;5031048;28;20255;-78
2024/01/22 09:13:33;;;;;;;73.37;35.57;;;;;;;-3.78;85.92;94289.56;5035370;28;20241;-79
2024/01/22 09:15:59;;;;;;;53.33;31.10;;;;;;;-3.47;84.74;94308.59;5037386;28;20229;-79
2024/01/22 09:18:25;;;;;;;60.10;32.23;;;;;;;-4.08;86.51;94318.91;5031527;28;20219;-79
2024/01/22 09:20:52;;;;;;;61.13;31.93;;;;;;;-4.17;88.38;94303.69;5034942;28;20233;-78
2024/01/22 09:23:17;;;;;;;57.63;30.47;;;;;;;-3.22;85.28;94302.59;5029732;28;20220;-78
2024/01/22 09:25:43;;;;;;;54.97;32.37;;;;;;;-2.93;83.13;94297.91;5034252;28;20213;-79
2024/01/22 09:28:08;;;;;;;53.80;30.60;;;;;;;-2.67;82.37;94293.50;5031089;28;20280;-78
2024/01/22 09:30:34;;;;;;;62.40;34.37;;;;;;;-3.53;83.84;94297.22;5026711;28;20224;-80
2024/01/22 09:32:59;;;;;;;60.33;32.90;;;;;;;-3.61;84.63;94283.63;5030272;28;20282;-82
2024/01/22 09:35:25;;;;;;;59.27;33.83;;;;;;;-3.95;86.12;94282.78;5037963;28;20191;-78
2024/01/22 09:37:51;;;;;;;54.47;32.13;;;;;;;-3.06;85.04;94302.66;5030995;28;20214;-77
2024/01/22 09:40:17;;;;;;;61.00;33.20;;;;;;;-2.64;82.28;94297.47;5021073;28;20222;-79
2024/01/22 09:42:43;;;;;;;64.07;33.77;;;;;;;-2.71;82.40;94297.31;5026247;28;20286;-75
2024/01/22 09:45:09;;;;;;;65.97;35.13;;;;;;;-3.21;86.00;94304.22;5030300;28;20214;-75
2024/01/22 09:47:37;;;;;;;63.13;34.07;;;;;;;-2.81;84.76;94294.09;5031340;28;20222;-83
2024/01/22 09:50:03;;;;;;;63.83;33.40;;;;;;;-2.60;82.49;94273.22;5029953;28;20187;-77
2024/01/22 09:52:28;;;;;;;55.60;32.77;;;;;;;-2.19;81.47;94305.50;5030516;28;20230;-76
2024/01/22 09:54:56;;;;;;;54.93;31.30;;;;;;;-2.05;80.75;94300.53;5029098;28;20202;-77
2024/01/22 09:57:26;;;;;;;62.27;34.50;;;;;;;-2.73;82.61;94277.97;5028593;28;20227;-77
2024/01/22 09:59:52;;;;;;;59.63;33.00;;;;;;;-2.34;81.74;94296.88;5030564;28;20264;-76
2024/01/22 10:02:18;;;;;;;58.40;32.40;;;;;;;-2.75;83.20;94288.34;5030536;28;20235;-81
2024/01/22 10:04:44;;;;;;;59.63;33.77;;;;;;;-2.81;83.67;94270.28;5031206;28;20193;-76
2024/01/22 10:07:13;;;;;;;60.93;34.57;;;;;;;-2.73;83.19;94280.53;5030748;28;20239;-77
2024/01/22 10:09:38;;;;;;;65.73;34.33;;;;;;;-3.06;84.47;94282.22;5027894;28;20187;-75
2024/01/22 10:12:04;;;;;;;58.23;32.60;;;;;;;-2.99;85.13;94247.44;5031499;28;20230;-81
2024/01/22 10:14:41;;;;;;;55.40;31.13;;;;;;;-2.74;82.93;94272.06;5031521;28;20222;-77
2024/01/22 10:17:20;;;;;;;49.97;29.93;;;;;;;-2.92;82.98;94268.03;5036196;28;20252;-77
2024/01/22 10:19:46;;;;;;;64.03;33.10;;;;;;;-3.05;84.32;94268.50;5025773;28;20186;-77
2024/01/22 10:22:15;;;;;;;60.67;33.80;;;;;;;-3.04;84.40;94265.00;5029854;28;20759;-77
2024/01/22 10:24:40;;;;;;;54.37;31.50;;;;;;;-3.08;84.74;94245.03;5021729;28;20178;-78
2024/01/22 10:27:16;;;;;;;55.37;30.27;;;;;;;-2.92;84.60;94268.03;5030000;28;20211;-79
2024/01/22 10:29:45;;;;;;;57.87;31.43;;;;;;;-3.33;86.37;94251.81;5031040;28;20179;-77
2024/01/22 10:32:11;;;;;;;45.30;29.50;;;;;;;-2.99;85.82;94255.13;5044786;28;20225;-77
2024/01/22 10:34:46;;;;;;;59.20;30.40;;;;;;;-3.01;85.43;94251.91;5031270;28;20246;-77
2024/01/22 10:37:12;;;;;;;56.00;32.63;;;;;;;-2.89;85.58;94252.41;5043143;28;20296;-77
2024/01/22 10:39:42;;;;;;;50.33;28.47;;;;;;;-2.75;84.66;94250.03;5063577;28;20759;-77
2024/01/22 10:42:17;;;;;;;52.57;29.43;;;;;;;-3.03;86.08;94246.16;5030808;28;20296;-78
2024/01/22 10:44:47;;;;;;;52.73;31.60;;;;;;;-2.79;85.73;94258.16;5032266;28;20199;-77
2024/01/22 10:47:14;;;;;;;57.63;31.80;;;;;;;-2.89;88.07;94237.88;5033506;28;20241;-74
2024/01/22 10:49:42;;;;;;;48.63;28.60;;;;;;;-2.91;85.22;94239.78;5029009;28;20202;-75
2024/01/22 10:52:07;;;;;;;51.23;29.23;;;;;;;-2.88;85.56;94244.56;5028481;28;20260;-74
2024/01/22 10:54:34;;;;;;;46.80;29.13;;;;;;;-2.44;84.81;94239.97;5028762;28;20196;-76
2024/01/22 10:57:04;;;;;;;47.87;26.87;;;;;;;-2.22;83.88;94235.00;5029579;28;20235;-76
2024/01/22 10:59:39;;;;;;;53.37;28.13;;;;;;;-2.13;82.70;94230.66;5019297;28;20187;-75
2024/01/22 11:02:06;;;;;;;47.03;27.93;;;;;;;-2.23;82.77;94228.31;5029229;28;20238;-74
2024/01/22 11:04:58;;;;;;;50.07;30.60;;;;;;;-2.35;82.32;94214.22;5034125;28;20747;-75
2024/01/22 11:07:28;;;;;;;54.03;29.43;;;;;;;-2.26;83.23;94215.84;5030125;28;20226;-74
2024/01/22 11:09:57;;;;;;;60.03;33.00;;;;;;;-2.95;84.75;94164.44;5031760;28;20190;-74
2024/01/22 11:12:24;;;;;;;56.13;32.53;;;;;;;-2.51;84.58;94221.94;5029564;28;20218;-74
2024/01/22 11:14:50;;;;;;;51.47;30.67;;;;;;;-2.30;84.83;94223.97;5029346;28;20189;-73
2024/01/22 11:17:17;;;;;;;48.20;31.60;;;;;;;-2.57;86.72;94225.13;5029068;28;20230;-76